Time;durP1;ratioP1;P1;durP2;ratioP2;P2;SDS_P1;SDS_P2;PMS_P1;PMS_P2;Temp;Humidity;BMP_temperature;BMP_pressure;BME280_temperature;BME280_humidity;BME280_pressure;Samples;Min_cycle;Max_cycle;Signal;HPM_P1;HPM_P2
2021/03/29 00:01:49;;;;;;;12.15;6.30;;;;;;;10.43;44.15;98142.13;5044750;28;20072;-66
2021/03/29 00:04:34;;;;;;;8.48;5.18;;;;;;;10.28;43.90;98109.56;5046013;28;20044;-69
2021/03/29 00:07:20;;;;;;;8.93;4.63;;;;;;;10.42;43.92;98139.72;5044461;28;20040;-67
2021/03/29 00:10:07;;;;;;;9.15;4.43;;;;;;;9.83;43.69;98061.63;5045981;28;20075;-68
2021/03/29 00:12:52;;;;;;;8.30;3.85;;;;;;;10.42;43.46;98140.53;5045368;28;20043;-68
2021/03/29 00:15:40;;;;;;;10.20;4.00;;;;;;;10.40;42.98;98156.66;5045484;28;20060;-68
2021/03/29 00:18:25;;;;;;;9.27;4.20;;;;;;;10.14;43.57;98095.22;5045898;28;20512;-68
2021/03/29 00:21:09;;;;;;;10.82;4.45;;;;;;;10.36;43.81;98141.91;5044031;28;20043;-68
2021/03/29 00:23:54;;;;;;;6.40;3.40;;;;;;;9.81;43.19;98055.66;5045814;28;20129;-67
2021/03/29 00:26:39;;;;;;;7.97;3.58;;;;;;;9.67;43.78;98038.53;5045883;28;20221;-68
2021/03/29 00:29:23;;;;;;;9.85;4.85;;;;;;;10.27;43.80;98132.88;5045637;28;20065;-69
2021/03/29 00:32:10;;;;;;;7.25;5.15;;;;;;;10.30;43.78;98126.66;5043874;28;20423;-68
2021/03/29 00:34:54;;;;;;;7.90;3.47;;;;;;;10.23;44.13;98126.41;5044136;28;20107;-68
2021/03/29 00:37:42;;;;;;;7.72;3.50;;;;;;;10.18;45.00;98128.59;5045710;28;20542;-68
2021/03/29 00:40:27;;;;;;;9.93;3.88;;;;;;;10.00;44.07;98089.16;5057285;28;20120;-68
2021/03/29 00:43:15;;;;;;;7.45;3.78;;;;;;;10.23;44.41;98131.94;5045729;28;20186;-69
2021/03/29 00:46:02;;;;;;;5.55;2.95;;;;;;;10.16;45.36;98134.44;5045511;28;20059;-70
2021/03/29 00:48:50;;;;;;;8.70;4.40;;;;;;;9.91;45.06;98124.41;5045100;28;20534;-70
2021/03/29 00:51:36;;;;;;;7.18;3.50;;;;;;;10.10;44.59;98152.41;5043670;28;20056;-69
2021/03/29 00:54:21;;;;;;;5.35;2.92;;;;;;;10.03;45.34;98154.91;5045587;28;20051;-69
2021/03/29 00:57:06;;;;;;;7.20;3.25;;;;;;;9.20;45.83;98070.31;5044921;28;20048;-67
2021/03/29 00:59:51;;;;;;;8.60;2.65;;;;;;;9.58;46.13;98183.59;5045013;28;20439;-68
2021/03/29 01:02:35;;;;;;;4.75;2.72;;;;;;;9.50;46.38;98127.19;5043787;28;20106;-69
2021/03/29 01:05:21;;;;;;;7.53;2.85;;;;;;;9.47;46.08;98158.28;5045033;28;20044;-69
2021/03/29 01:08:07;;;;;;;4.03;2.50;;;;;;;9.62;46.59;98166.00;5044041;28;20304;-68
2021/03/29 01:10:52;;;;;;;6.78;3.03;;;;;;;9.71;45.44;98166.72;5043363;28;20052;-66
2021/03/29 01:13:43;;;;;;;7.43;2.85;;;;;;;9.17;45.99;98098.63;5043907;28;20094;-67
2021/03/29 01:16:32;;;;;;;4.38;2.72;;;;;;;9.38;46.28;98143.72;5044452;28;20075;-69
2021/03/29 01:19:27;;;;;;;5.47;2.95;;;;;;;9.68;44.99;98180.41;5043880;28;20034;-68
2021/03/29 01:22:13;;;;;;;8.40;3.70;;;;;;;9.73;45.82;98169.97;5043226;28;20148;-68
2021/03/29 01:25:22;;;;;;;6.68;3.83;;;;;;;9.71;47.16;98186.09;5044923;28;20102;-68
2021/03/29 01:28:11;;;;;;;7.00;3.38;;;;;;;9.74;47.31;98190.97;5044713;28;20048;-68
2021/03/29 01:30:55;;;;;;;3.97;2.88;;;;;;;9.38;46.41;98138.19;5042682;28;20047;-68
2021/03/29 01:33:39;;;;;;;7.90;3.47;;;;;;;9.21;46.59;98111.44;5044442;28;20134;-67
2021/03/29 01:36:25;;;;;;;8.52;3.17;;;;;;;9.64;46.30;98201.63;5042515;28;20120;-69
2021/03/29 01:39:12;;;;;;;9.00;3.58;;;;;;;9.53;47.74;98195.66;5042910;28;20044;-68
2021/03/29 01:41:58;;;;;;;7.65;3.20;;;;;;;9.31;47.19;98184.88;5044353;28;20048;-69
2021/03/29 01:44:43;;;;;;;8.25;2.95;;;;;;;9.40;46.99;98191.19;5044250;28;20471;-69
2021/03/29 01:47:27;;;;;;;7.38;3.65;;;;;;;9.36;47.73;98179.16;5044208;28;20518;-68
2021/03/29 01:50:14;;;;;;;8.88;4.18;;;;;;;9.21;48.24;98199.13;5042104;28;20071;-67
2021/03/29 01:52:59;;;;;;;6.40;3.35;;;;;;;9.25;48.49;98199.25;5042996;28;20040;-68
2021/03/29 01:55:44;;;;;;;7.45;3.28;;;;;;;9.19;45.27;98195.88;5043447;28;20074;-66
2021/03/29 01:58:28;;;;;;;4.75;3.00;;;;;;;9.03;46.05;98121.00;5057586;28;20097;-67
2021/03/29 02:01:13;;;;;;;5.25;2.75;;;;;;;9.28;46.49;98188.31;5043861;28;20048;-67
2021/03/29 02:03:57;;;;;;;6.25;2.70;;;;;;;9.17;46.98;98181.56;5042859;28;20036;-68
2021/03/29 02:06:42;;;;;;;6.90;3.30;;;;;;;9.17;47.94;98198.16;5043861;28;20130;-69
2021/03/29 02:09:26;;;;;;;8.80;5.13;;;;;;;9.16;47.98;98202.06;5044220;28;20149;-69
2021/03/29 02:12:11;;;;;;;12.68;7.07;;;;;;;9.07;49.11;98209.59;5043461;28;20064;-68
2021/03/29 02:14:57;;;;;;;19.48;7.90;;;;;;;9.07;48.56;98209.59;5043930;28;20114;-69
2021/03/29 02:17:43;;;;;;;23.80;8.55;;;;;;;8.16;48.44;98084.13;5044323;28;20098;-69
2021/03/29 02:20:32;;;;;;;19.95;8.45;;;;;;;8.69;49.63;98175.63;5043938;28;20068;-69
2021/03/29 02:23:21;;;;;;;21.42;9.63;;;;;;;8.33;49.09;98097.94;5056935;28;20040;-70
2021/03/29 02:26:06;;;;;;;16.52;6.80;;;;;;;8.86;49.24;98219.75;5043110;28;20059;-68
2021/03/29 02:28:51;;;;;;;14.35;6.57;;;;;;;8.72;50.00;98186.00;5056992;28;20491;-69
2021/03/29 02:31:36;;;;;;;12.65;5.63;;;;;;;8.78;49.92;98212.28;5042264;28;20047;-69
2021/03/29 02:34:20;;;;;;;21.30;7.90;;;;;;;8.63;50.42;98218.38;5042781;28;20055;-68
2021/03/29 02:37:05;;;;;;;19.15;7.38;;;;;;;8.54;49.89;98223.09;5043398;28;20160;-68
2021/03/29 02:39:49;;;;;;;14.85;5.32;;;;;;;8.22;50.11;98182.22;5060069;28;20046;-69
2021/03/29 02:42:36;;;;;;;9.70;4.80;;;;;;;8.17;50.74;98215.50;5063576;28;20035;-68
2021/03/29 02:45:23;;;;;;;32.38;12.45;;;;;;;7.73;51.11;98159.50;5061759;28;20415;-68
2021/03/29 02:48:15;;;;;;;19.35;6.72;;;;;;;7.68;51.68;98167.94;5062415;28;20541;-69
2021/03/29 02:51:03;;;;;;;12.43;5.65;;;;;;;7.98;53.01;98239.84;5062927;28;20131;-70
2021/03/29 02:53:59;;;;;;;13.73;7.95;;;;;;;7.99;52.94;98252.50;5062764;28;20043;-68
2021/03/29 02:56:45;;;;;;;11.38;5.65;;;;;;;7.83;53.64;98241.13;5061678;28;20129;-66
2021/03/29 02:59:29;;;;;;;24.00;10.07;;;;;;;7.87;52.78;98241.28;5062388;28;20039;-68
2021/03/29 03:02:14;;;;;;;61.70;37.38;;;;;;;7.38;53.83;98162.59;5064055;28;20059;-67
2021/03/29 03:04:58;;;;;;;17.17;7.10;;;;;;;7.77;53.29;98236.09;5067360;28;20099;-67
2021/03/29 03:07:43;;;;;;;14.10;7.03;;;;;;;6.78;54.09;98101.84;5066076;28;20030;-69
2021/03/29 03:10:29;;;;;;;11.77;6.43;;;;;;;7.18;54.82;98175.03;5065779;28;20051;-69
2021/03/29 03:13:14;;;;;;;12.48;6.93;;;;;;;7.61;54.59;98249.53;5067569;28;20046;-69
2021/03/29 03:15:59;;;;;;;7.07;4.28;;;;;;;7.47;54.52;98244.16;5066595;28;20047;-69
2021/03/29 03:18:47;;;;;;;7.38;3.95;;;;;;;7.49;54.21;98241.88;5065698;28;20114;-68
2021/03/29 03:21:33;;;;;;;9.32;3.83;;;;;;;7.40;54.37;98243.00;5065156;28;20612;-68
2021/03/29 03:24:17;;;;;;;11.57;4.90;;;;;;;7.29;54.40;98242.47;5065716;28;20204;-69
2021/03/29 03:27:10;;;;;;;15.45;4.55;;;;;;;7.21;56.10;98240.50;5065262;28;20068;-68
2021/03/29 03:29:55;;;;;;;12.37;6.07;;;;;;;7.04;56.33;98218.41;5067570;28;20048;-69
2021/03/29 03:32:39;;;;;;;16.63;7.03;;;;;;;7.15;56.28;98250.06;5065896;28;20525;-68
2021/03/29 03:35:25;;;;;;;10.98;5.20;;;;;;;7.01;56.91;98252.13;5065028;28;20051;-67
2021/03/29 03:38:22;;;;;;;15.48;6.38;;;;;;;7.00;57.56;98255.97;5064658;28;20152;-67
2021/03/29 03:41:12;;;;;;;13.85;6.68;;;;;;;6.65;56.90;98187.31;5046195;28;20052;-68
2021/03/29 03:43:58;;;;;;;11.35;6.15;;;;;;;7.04;56.66;98267.19;5046546;28;20427;-69
2021/03/29 03:46:45;;;;;;;10.70;6.10;;;;;;;7.03;56.71;98260.88;5044905;28;20048;-69
2021/03/29 03:49:31;;;;;;;13.05;7.40;;;;;;;6.99;56.71;98259.88;5046371;28;20532;-69
2021/03/29 03:52:17;;;;;;;12.10;6.72;;;;;;;6.64;57.30;98236.03;5046727;28;20047;-70
2021/03/29 03:55:02;;;;;;;13.05;5.63;;;;;;;6.81;57.79;98274.69;5045110;28;20485;-69
2021/03/29 03:57:46;;;;;;;9.82;4.25;;;;;;;6.75;56.78;98299.94;5045069;28;20423;-69
2021/03/29 04:00:31;;;;;;;13.00;6.07;;;;;;;6.51;56.61;98253.47;5044651;28;20314;-68
2021/03/29 04:03:15;;;;;;;10.90;6.05;;;;;;;6.74;55.11;98268.81;5045342;28;20140;-69
2021/03/29 04:05:59;;;;;;;15.55;6.90;;;;;;;6.14;54.57;98174.09;5044894;28;20090;-69
2021/03/29 04:08:44;;;;;;;12.10;4.50;;;;;;;6.64;54.65;98260.81;5046273;28;20044;-69
2021/03/29 04:11:29;;;;;;;9.73;5.10;;;;;;;6.61;54.41;98255.16;5045962;28;20519;-71
2021/03/29 04:14:12;;;;;;;9.68;5.28;;;;;;;6.64;54.10;98257.28;5044829;28;20075;-71
2021/03/29 04:16:56;;;;;;;10.88;5.65;;;;;;;6.03;54.12;98120.47;5043936;28;20098;-70
2021/03/29 04:19:40;;;;;;;14.15;6.45;;;;;;;7.13;54.06;98268.84;5045752;28;20451;-71
2021/03/29 04:22:24;;;;;;;29.15;12.85;;;;;;;6.79;54.30;98241.16;5045365;28;20059;-70
2021/03/29 04:25:11;;;;;;;13.25;7.47;;;;;;;6.95;54.33;98242.38;5044671;28;20087;-69
2021/03/29 04:27:56;;;;;;;8.85;5.57;;;;;;;7.24;54.29;98281.22;5044464;28;20120;-70
2021/03/29 04:30:40;;;;;;;11.55;6.97;;;;;;;7.17;53.08;98242.28;5045250;28;20094;-69
2021/03/29 04:33:25;;;;;;;18.80;8.10;;;;;;;6.67;53.72;98188.59;5045913;28;20044;-70
2021/03/29 04:36:09;;;;;;;17.15;9.05;;;;;;;7.17;54.27;98288.31;5043538;28;20064;-68
2021/03/29 04:38:53;;;;;;;18.50;8.63;;;;;;;7.21;53.82;98294.81;5053529;28;20203;-69
2021/03/29 04:41:37;;;;;;;26.45;11.30;;;;;;;6.74;54.20;98202.75;5065391;28;20046;-68
2021/03/29 04:44:21;;;;;;;21.85;11.18;;;;;;;7.28;53.56;98281.38;5065713;28;20048;-69
2021/03/29 04:47:05;;;;;;;32.45;14.07;;;;;;;7.35;53.04;98284.50;5065011;28;20039;-70
2021/03/29 04:49:49;;;;;;;27.27;14.10;;;;;;;7.50;52.98;98289.56;5064953;28;20533;-69
2021/03/29 04:52:33;;;;;;;29.88;14.60;;;;;;;7.54;53.20;98294.13;5063986;28;20128;-70
2021/03/29 04:55:18;;;;;;;33.63;16.10;;;;;;;7.00;53.78;98200.88;5064468;28;20047;-70
2021/03/29 04:58:02;;;;;;;78.18;17.45;;;;;;;7.69;54.40;98279.91;5063757;28;20035;-69
2021/03/29 05:00:46;;;;;;;14.20;6.28;;;;;;;6.91;53.08;98182.69;5065220;28;20432;-70
2021/03/29 05:03:30;;;;;;;18.02;8.05;;;;;;;7.69;51.86;98290.94;5066412;28;20039;-70
2021/03/29 05:06:14;;;;;;;23.38;10.38;;;;;;;7.81;52.92;98297.75;5057671;28;20074;-68
2021/03/29 05:08:58;;;;;;;29.50;15.27;;;;;;;8.04;52.04;98296.47;5050098;28;20032;-67
2021/03/29 05:11:54;;;;;;;38.28;17.55;;;;;;;6.88;52.19;98090.53;5044691;28;20055;-68
2021/03/29 05:14:39;;;;;;;21.83;9.82;;;;;;;8.18;52.84;98319.22;5059443;28;20067;-70
2021/03/29 05:17:24;;;;;;;26.00;13.07;;;;;;;8.01;52.26;98259.31;5054394;28;20086;-67
2021/03/29 05:20:09;;;;;;;32.28;13.30;;;;;;;8.60;51.72;98315.69;5048008;28;20133;-70
2021/03/29 05:22:53;;;;;;;19.25;9.27;;;;;;;8.05;51.43;98184.97;5051553;28;20059;-69
2021/03/29 05:25:37;;;;;;;18.80;9.77;;;;;;;8.79;51.61;98324.41;5045251;28;20051;-70
2021/03/29 05:28:21;;;;;;;22.13;10.70;;;;;;;8.05;51.12;98149.09;5044402;28;20110;-70
2021/03/29 05:31:06;;;;;;;31.25;13.93;;;;;;;9.23;49.26;98313.75;5044179;28;20074;-70
2021/03/29 05:33:51;;;;;;;26.20;13.57;;;;;;;8.99;48.26;98262.94;5060742;28;20089;-69
2021/03/29 05:36:34;;;;;;;17.15;8.65;;;;;;;9.29;47.33;98295.03;5062567;28;20051;-70
2021/03/29 05:39:18;;;;;;;32.55;16.75;;;;;;;9.66;47.17;98313.56;5056362;28;20857;-69
2021/03/29 05:42:03;;;;;;;23.42;11.02;;;;;;;9.75;45.64;98324.59;5044714;28;20044;-70
2021/03/29 05:44:47;;;;;;;28.75;14.40;;;;;;;9.85;47.34;98330.53;5062577;28;20055;-70
2021/03/29 05:47:31;;;;;;;31.20;17.55;;;;;;;10.08;47.00;98323.63;5043955;28;20051;-68
2021/03/29 05:50:17;;;;;;;29.73;17.55;;;;;;;8.62;47.39;98070.34;5050869;28;20161;-68
2021/03/29 05:53:01;;;;;;;19.10;12.40;;;;;;;10.11;46.80;98377.50;5055556;28;20221;-72
2021/03/29 05:55:47;;;;;;;20.33;12.90;;;;;;;10.14;46.74;98277.16;5057379;28;20051;-64
2021/03/29 05:58:34;;;;;;;21.65;11.05;;;;;;;10.73;45.16;98328.47;5045759;28;20419;-66
2021/03/29 06:01:18;;;;;;;45.28;21.40;;;;;;;9.35;43.95;98061.44;5062422;28;20093;-67
2021/03/29 06:04:02;;;;;;;43.20;19.77;;;;;;;11.39;43.66;98318.13;5043299;28;20039;-65
2021/03/29 06:06:46;;;;;;;31.63;16.20;;;;;;;11.65;42.16;98316.69;5055202;28;20051;-69
2021/03/29 06:09:30;;;;;;;25.27;11.85;;;;;;;12.18;40.41;98340.63;5061306;28;20461;-66
2021/03/29 06:12:16;;;;;;;10.23;4.57;;;;;;;11.60;43.33;98338.28;5047691;28;20040;-68
2021/03/29 06:15:03;;;;;;;8.10;4.15;;;;;;;11.56;43.25;98334.56;5043661;28;20518;-70
2021/03/29 06:17:47;;;;;;;7.35;4.50;;;;;;;10.98;42.26;98215.69;5044948;28;20423;-66
2021/03/29 06:20:31;;;;;;;16.92;7.45;;;;;;;12.08;40.68;98330.81;5049052;28;20048;-70
2021/03/29 06:23:15;;;;;;;;;;;;;;;12.32;40.12;98335.50;5044494;28;20418;-70
2021/03/29 06:26:28;;;;;;;13.90;6.07;;;;;;;12.53;39.44;98330.63;5043540;28;19928;-64
2021/03/29 06:29:18;;;;;;;9.65;4.75;;;;;;;10.30;38.84;97924.50;5055764;28;20533;-73
2021/03/29 06:32:03;;;;;;;10.05;5.40;;;;;;;10.16;38.47;97960.00;5048375;28;20043;-71
2021/03/29 06:34:48;;;;;;;6.20;4.30;;;;;;;13.09;37.44;98326.69;5051637;28;20133;-68
2021/03/29 06:37:32;;;;;;;11.07;5.57;;;;;;;13.08;36.79;98254.72;5048263;28;20047;-71
2021/03/29 06:40:16;;;;;;;7.43;5.95;;;;;;;13.69;36.20;98317.97;5057372;28;20538;-70
2021/03/29 06:43:14;;;;;;;12.20;6.97;;;;;;;13.85;35.68;98314.38;5047819;28;20039;-69
2021/03/29 06:46:06;;;;;;;12.68;5.88;;;;;;;14.05;34.37;98275.09;5054505;28;20047;-72
2021/03/29 06:48:52;;;;;;;8.02;5.43;;;;;;;14.40;34.01;98314.13;5048126;28;20091;-69
2021/03/29 06:51:37;;;;;;;10.88;4.63;;;;;;;12.75;35.27;98207.72;5045061;28;20565;-70
2021/03/29 06:54:25;;;;;;;7.15;4.13;;;;;;;13.93;35.33;98319.75;5050885;28;20230;-72
2021/03/29 06:57:09;;;;;;;6.15;4.10;;;;;;;14.08;34.77;98312.53;5050399;28;20048;-72
2021/03/29 06:59:54;;;;;;;8.40;3.65;;;;;;;12.80;36.42;98321.50;5054837;28;20106;-71
2021/03/29 07:02:41;;;;;;;6.93;3.42;;;;;;;12.66;36.79;98273.78;5055764;28;20055;-68
2021/03/29 07:05:25;;;;;;;5.03;3.08;;;;;;;12.11;37.78;98270.94;5067093;28;20121;-67
2021/03/29 07:08:11;;;;;;;4.85;3.58;;;;;;;12.41;37.09;98294.50;5065527;28;20128;-69
2021/03/29 07:10:56;;;;;;;8.40;3.58;;;;;;;12.59;37.14;98283.91;5064708;28;20450;-68
2021/03/29 07:13:41;;;;;;;3.80;3.05;;;;;;;12.90;36.08;98318.19;5055682;28;20439;-63
2021/03/29 07:16:27;;;;;;;6.70;3.88;;;;;;;12.88;35.34;98291.91;5046166;28;20580;-67
2021/03/29 07:19:11;;;;;;;5.88;3.10;;;;;;;12.98;35.97;98292.19;5048632;28;20040;-68
2021/03/29 07:21:57;;;;;;;5.15;3.08;;;;;;;11.95;34.58;98131.22;5045263;28;20074;-66
2021/03/29 07:24:41;;;;;;;7.13;3.40;;;;;;;13.47;33.65;98318.59;5049953;28;20097;-67
2021/03/29 07:27:25;;;;;;;4.45;3.00;;;;;;;13.61;33.54;98321.75;5054688;28;20125;-67
2021/03/29 07:30:11;;;;;;;4.50;3.00;;;;;;;13.32;32.66;98249.81;5046683;28;20577;-66
2021/03/29 07:32:58;;;;;;;5.78;3.15;;;;;;;13.84;32.01;98318.31;5045122;28;20476;-69
2021/03/29 07:35:43;;;;;;;4.75;3.20;;;;;;;13.58;32.88;98266.78;5047365;28;20099;-66
2021/03/29 07:38:54;;;;;;;8.98;4.75;;;;;;;14.04;33.40;98322.78;5054676;28;20402;-67
2021/03/29 07:41:39;;;;;;;10.80;5.47;;;;;;;14.26;32.93;98316.56;5053028;28;20051;-69
2021/03/29 07:44:24;;;;;;;6.60;5.28;;;;;;;14.33;33.56;98312.00;5063032;28;20059;-70
2021/03/29 07:47:08;;;;;;;7.53;4.57;;;;;;;14.51;32.94;98317.97;5053899;28;20083;-68
2021/03/29 07:49:52;;;;;;;5.55;4.57;;;;;;;14.63;32.90;98317.81;5056122;28;20064;-67
2021/03/29 07:52:42;;;;;;;9.20;4.28;;;;;;;14.07;32.19;98235.72;5044453;28;20040;-66
2021/03/29 07:55:52;;;;;;;12.00;6.82;;;;;;;14.62;31.86;98330.16;5046530;28;20043;-68
2021/03/29 07:58:46;;;;;;;22.13;12.88;;;;;;;14.66;31.99;98329.06;5053260;28;20068;-68
2021/03/29 08:02:07;;;;;;;13.43;8.57;;;;;;;14.65;31.88;98326.63;5061872;28;20046;-68
2021/03/29 08:05:05;;;;;;;5.93;3.65;;;;;;;13.93;31.76;98332.88;4998613;28;20057;-67
2021/03/29 08:07:55;;;;;;;5.00;3.20;;;;;;;13.85;31.30;98297.69;5043948;28;20048;-68
2021/03/29 08:11:10;;;;;;;3.80;3.40;;;;;;;14.32;31.33;98329.09;5052552;28;20170;-67
2021/03/29 08:13:56;;;;;;;6.20;3.50;;;;;;;14.27;31.30;98284.75;5047481;28;20118;-72
2021/03/29 08:16:40;;;;;;;5.00;3.72;;;;;;;14.28;30.80;98233.41;5053447;28;20182;-74
2021/03/29 08:19:25;;;;;;;;;;;;;;;14.72;29.89;98318.41;5049045;28;20078;-71
2021/03/29 08:22:09;;;;;;;4.57;3.70;;;;;;;14.59;30.13;98311.38;5049874;28;19975;-73
2021/03/29 08:24:54;;;;;;;5.35;3.00;;;;;;;14.19;30.40;98241.97;5045431;28;20079;-69
2021/03/29 08:27:53;;;;;;;4.47;3.03;;;;;;;14.59;30.64;98284.28;5052994;28;20040;-70
2021/03/29 08:30:41;;;;;;;4.47;3.25;;;;;;;14.56;29.77;98300.91;5059166;28;20525;-68
2021/03/29 08:33:25;;;;;;;4.10;3.70;;;;;;;13.57;29.76;98191.97;5044230;28;20047;-67
2021/03/29 08:36:09;;;;;;;6.80;3.30;;;;;;;14.69;30.42;98299.63;5058747;28;20040;-68
2021/03/29 08:38:53;;;;;;;3.78;2.67;;;;;;;14.24;28.67;98265.94;5050561;28;20047;-68
2021/03/29 08:41:38;;;;;;;4.22;3.10;;;;;;;14.64;29.15;98299.91;5049707;28;20075;-67
2021/03/29 08:44:23;;;;;;;6.85;5.22;;;;;;;14.88;29.76;98294.84;5044574;28;20044;-69
2021/03/29 08:47:11;;;;;;;25.13;11.73;;;;;;;14.47;29.86;98152.56;5044950;28;20052;-69
2021/03/29 08:50:01;;;;;;;5.43;3.90;;;;;;;14.87;29.29;98222.69;5044813;28;20063;-69
2021/03/29 08:52:57;;;;;;;5.95;4.10;;;;;;;14.69;28.40;98285.66;5063443;28;20074;-68
2021/03/29 08:55:43;;;;;;;5.10;3.67;;;;;;;13.96;29.39;98187.31;5061195;28;20405;-65
2021/03/29 08:58:27;;;;;;;4.97;3.50;;;;;;;14.17;29.41;98271.34;5059827;28;20067;-65
2021/03/29 09:01:11;;;;;;;3.88;3.13;;;;;;;14.42;30.14;98289.47;5051836;28;20588;-68
2021/03/29 09:04:08;;;;;;;3.70;3.05;;;;;;;13.15;30.59;98133.28;5056769;28;20094;-65
2021/03/29 09:06:54;;;;;;;5.63;3.58;;;;;;;14.00;29.77;98289.28;5064828;28;20051;-66
2021/03/29 09:09:38;;;;;;;7.43;5.00;;;;;;;14.14;30.54;98227.50;5056572;28;20113;-66
2021/03/29 09:12:25;;;;;;;12.55;6.93;;;;;;;14.32;30.16;98212.00;5077470;28;20071;-67
2021/03/29 09:15:17;;;;;;;7.03;3.38;;;;;;;14.95;28.10;98274.66;5064052;28;20525;-67
2021/03/29 09:18:04;;;;;;;16.15;8.30;;;;;;;14.96;28.23;98260.34;5062363;28;20492;-69
2021/03/29 09:20:51;;;;;;;10.05;5.85;;;;;;;14.76;29.41;98267.09;5057132;28;20576;-69
2021/03/29 09:23:36;;;;;;;6.90;3.83;;;;;;;14.68;29.35;98278.47;5043189;28;20087;-67
2021/03/29 09:26:25;;;;;;;6.30;3.60;;;;;;;15.16;28.91;98280.63;5044422;28;20159;-68
2021/03/29 09:29:33;;;;;;;5.75;3.30;;;;;;;15.36;28.87;98268.25;5044043;28;20036;-68
2021/03/29 09:32:20;;;;;;;4.03;3.15;;;;;;;14.60;28.07;98268.34;5061829;28;20098;-68
2021/03/29 09:35:04;;;;;;;4.60;3.42;;;;;;;14.28;28.51;98197.16;5052007;28;20118;-68
2021/03/29 09:37:49;;;;;;;6.20;3.42;;;;;;;14.37;28.13;98181.84;5045088;28;20194;-67
2021/03/29 09:40:35;;;;;;;5.40;3.40;;;;;;;15.27;27.31;98253.72;5057332;28;20093;-68
2021/03/29 09:43:21;;;;;;;4.25;3.15;;;;;;;15.30;28.43;98255.75;5062512;28;20079;-69
2021/03/29 09:46:05;;;;;;;11.05;4.55;;;;;;;15.70;27.77;98272.88;5056698;28;20090;-70
2021/03/29 09:48:49;;;;;;;7.13;4.32;;;;;;;15.44;26.67;98253.28;5065854;28;20530;-69
2021/03/29 09:51:34;;;;;;;7.75;4.15;;;;;;;15.63;27.39;98239.25;5057815;28;20525;-69
2021/03/29 09:54:30;;;;;;;8.05;4.07;;;;;;;15.61;27.36;98160.59;5059945;28;20659;-64
2021/03/29 09:57:14;;;;;;;7.20;4.10;;;;;;;16.41;26.32;98247.59;5051805;28;20059;-66
2021/03/29 10:00:10;;;;;;;5.85;3.75;;;;;;;16.26;25.84;98245.78;5046215;28;20048;-68
2021/03/29 10:03:00;;;;;;;3.70;3.40;;;;;;;15.70;26.68;98113.63;5051544;28;20556;-69
2021/03/29 10:05:45;;;;;;;8.65;4.30;;;;;;;16.68;26.37;98241.97;5056249;28;20047;-66
2021/03/29 10:08:34;;;;;;;3.70;3.28;;;;;;;16.23;25.92;98145.88;5049086;28;20601;-68
2021/03/29 10:11:18;;;;;;;4.97;4.57;;;;;;;16.28;26.17;98221.03;5046336;28;20052;-69
2021/03/29 10:14:06;;;;;;;6.85;4.15;;;;;;;16.56;25.44;98196.28;5053871;28;20057;-71
2021/03/29 10:16:50;;;;;;;4.25;3.85;;;;;;;16.23;25.92;98084.34;5043209;28;20052;-70
2021/03/29 10:19:34;;;;;;;5.20;4.00;;;;;;;15.33;25.12;97917.22;5044108;28;20056;-70
2021/03/29 10:22:19;;;;;;;4.35;3.53;;;;;;;16.89;25.08;98217.84;5059847;28;20040;-68
2021/03/29 10:25:11;;;;;;;3.25;2.95;;;;;;;16.00;24.80;98209.47;5061236;28;20170;-69
2021/03/29 10:27:57;;;;;;;3.88;2.83;;;;;;;14.97;26.98;98133.56;5055791;28;20565;-70
2021/03/29 10:30:41;;;;;;;3.58;3.28;;;;;;;15.12;26.59;98082.41;5043946;28;20103;-68
2021/03/29 10:33:25;;;;;;;;;;;;;;;15.81;26.60;98205.97;5044579;28;21162;-68
2021/03/29 10:36:16;;;;;;;3.90;2.92;;;;;;;14.76;26.90;98059.88;5048963;28;19932;-68
2021/03/29 10:39:00;;;;;;;5.43;3.10;;;;;;;15.27;25.95;98080.63;5047517;28;20079;-64
2021/03/29 10:41:44;;;;;;;7.43;3.40;;;;;;;15.10;26.17;98025.34;5042674;28;20048;-65
2021/03/29 10:44:28;;;;;;;4.18;3.25;;;;;;;15.87;25.96;98182.91;5045837;28;20095;-66
2021/03/29 10:47:12;;;;;;;4.18;3.05;;;;;;;16.08;25.66;98191.59;5048820;28;20048;-68
2021/03/29 10:49:56;;;;;;;3.25;2.75;;;;;;;15.78;26.35;98123.72;5060432;28;20158;-67
2021/03/29 10:52:41;;;;;;;4.38;3.15;;;;;;;16.61;25.10;98173.53;5043849;28;20196;-67
2021/03/29 10:55:25;;;;;;;8.80;3.08;;;;;;;15.86;25.89;98125.44;5052100;28;20050;-68
2021/03/29 10:58:09;;;;;;;3.35;3.05;;;;;;;16.32;26.05;98149.19;5044677;28;20526;-65
2021/03/29 11:00:54;;;;;;;5.53;3.13;;;;;;;16.09;25.59;98168.06;5051503;28;20114;-65
2021/03/29 11:03:38;;;;;;;4.93;2.97;;;;;;;16.26;26.89;98178.69;5051853;28;20071;-64
2021/03/29 11:06:22;;;;;;;3.30;2.97;;;;;;;15.87;26.28;98174.53;5047180;28;20044;-64
2021/03/29 11:09:07;;;;;;;5.90;2.85;;;;;;;15.70;26.05;98177.06;5049429;28;20122;-65
2021/03/29 11:11:52;;;;;;;3.88;3.13;;;;;;;16.02;25.45;98162.38;5052791;28;20476;-67
2021/03/29 11:14:37;;;;;;;4.03;3.20;;;;;;;16.34;25.23;98113.25;5044372;28;20052;-66
2021/03/29 11:17:25;;;;;;;4.63;2.90;;;;;;;14.89;24.70;97910.66;5041345;28;20126;-68
2021/03/29 11:20:10;;;;;;;4.47;3.10;;;;;;;15.38;26.20;98025.78;5062028;28;20052;-67
2021/03/29 11:22:54;;;;;;;3.40;3.03;;;;;;;16.11;24.76;98075.41;5050170;28;20142;-68
2021/03/29 11:25:38;;;;;;;4.25;3.03;;;;;;;15.82;24.57;98040.72;5061495;28;20118;-68
2021/03/29 11:28:22;;;;;;;;;;;;;;;16.75;24.42;98138.50;5067106;28;20141;-68
2021/03/29 11:31:07;;;;;;;5.82;3.25;;;;;;;16.88;24.24;98125.84;5074872;28;20320;-69
2021/03/29 11:33:51;;;;;;;5.32;2.88;;;;;;;15.47;25.22;97917.41;5066667;28;20044;-66
2021/03/29 11:36:35;;;;;;;3.40;3.00;;;;;;;16.49;25.38;98106.66;5046462;28;20455;-69
2021/03/29 11:39:19;;;;;;;5.93;3.60;;;;;;;15.39;24.82;97926.88;5045388;28;20258;-66
2021/03/29 11:42:04;;;;;;;4.30;3.10;;;;;;;15.02;25.41;97856.19;5051932;28;20036;-69
2021/03/29 11:44:48;;;;;;;3.80;2.88;;;;;;;16.50;24.48;98119.44;5063564;28;20415;-69
2021/03/29 11:47:32;;;;;;;4.05;3.10;;;;;;;16.80;25.39;98108.19;5051775;28;20439;-66
2021/03/29 11:50:16;;;;;;;5.25;3.50;;;;;;;17.07;24.70;98112.41;5045727;28;20056;-70
2021/03/29 11:53:01;;;;;;;5.78;3.40;;;;;;;17.03;24.19;98105.19;5065055;28;20442;-67
2021/03/29 11:55:46;;;;;;;4.32;3.38;;;;;;;17.08;25.01;98097.25;5051961;28;20534;-68
2021/03/29 11:58:30;;;;;;;6.63;3.40;;;;;;;16.87;25.10;98071.84;5048627;28;20907;-68
2021/03/29 12:01:23;;;;;;;;;;;;;;;17.16;24.25;98093.31;5064955;28;20480;-70
2021/03/29 12:07:29;;;;;;;3.22;3.00;;;;;;;16.18;25.95;98095.91;5044859;28;20051;-70
2021/03/29 12:13:20;;;;;;;4.28;3.88;;;;;;;16.68;25.78;98083.28;5048815;28;20103;-68
2021/03/29 12:16:05;;;;;;;5.45;3.50;;;;;;;16.51;25.39;98089.50;5043759;28;20075;-67
2021/03/29 12:18:53;;;;;;;5.47;4.35;;;;;;;16.32;25.73;98014.97;5044224;28;20036;-69
2021/03/29 12:21:38;;;;;;;10.65;9.20;;;;;;;15.98;26.50;98077.66;5043669;28;20040;-69
2021/03/29 12:24:27;;;;;;;4.63;3.70;;;;;;;16.12;26.66;98030.31;5048153;28;20086;-70
2021/03/29 12:27:12;;;;;;;3.63;2.83;;;;;;;15.73;25.17;97986.34;5065302;28;20059;-70
2021/03/29 12:30:03;;;;;;;7.20;2.85;;;;;;;16.48;24.40;98068.72;5065460;28;20102;-68
2021/03/29 12:32:47;;;;;;;3.13;2.83;;;;;;;16.49;24.11;98064.72;5064625;28;20044;-69
2021/03/29 12:35:32;;;;;;;3.63;3.30;;;;;;;16.44;24.97;98059.47;5062318;28;20039;-67
2021/03/29 12:38:16;;;;;;;7.50;3.80;;;;;;;16.61;25.36;98063.63;5053254;28;20518;-64
2021/03/29 12:41:05;;;;;;;5.43;4.93;;;;;;;16.01;25.95;98065.72;5043115;28;20048;-67
2021/03/29 12:44:03;;;;;;;3.17;2.67;;;;;;;16.26;25.70;98033.28;5055546;28;20550;-66
2021/03/29 12:46:53;;;;;;;6.13;3.70;;;;;;;16.21;25.88;98064.38;5044469;28;20078;-63
2021/03/29 12:49:38;;;;;;;3.05;2.78;;;;;;;16.08;26.28;98065.81;5044550;28;20129;-65
2021/03/29 12:52:22;;;;;;;5.15;4.63;;;;;;;16.34;25.37;98068.50;5043415;28;20048;-60
2021/03/29 12:55:08;;;;;;;5.30;4.88;;;;;;;15.15;25.40;97921.75;5044570;28;20076;-62
2021/03/29 12:57:55;;;;;;;3.83;3.20;;;;;;;16.38;25.92;98051.75;5045151;28;20154;-63
2021/03/29 13:00:39;;;;;;;4.25;3.40;;;;;;;15.02;26.02;97900.84;5056245;28;20075;-64
2021/03/29 13:03:30;;;;;;;6.43;3.05;;;;;;;16.30;25.22;98050.88;5055570;28;20091;-64
2021/03/29 13:09:04;;;;;;;4.93;2.72;;;;;;;16.61;23.91;98044.03;5057639;28;20435;-62
2021/03/29 13:11:52;;;;;;;5.60;2.67;;;;;;;16.64;24.99;98049.66;5043920;28;20059;-63
2021/03/29 13:15:07;;;;;;;4.32;2.55;;;;;;;16.82;24.90;98049.03;5043358;28;20133;-68